createdAt,value
2023-03-11T00:02:00.161Z,97492.50
2023-03-11T00:05:03.244Z,97497.91
2023-03-11T00:08:07.820Z,97494.09
2023-03-11T00:11:10.819Z,97489.75
2023-03-11T00:14:13.423Z,97507.00
2023-03-11T00:17:16.322Z,97500.50
2023-03-11T00:20:23.055Z,97508.31
2023-03-11T00:23:26.970Z,97497.06
2023-03-11T00:26:29.849Z,97490.06
2023-03-11T00:29:32.834Z,97498.16
2023-03-11T00:32:36.035Z,97482.94
2023-03-11T00:35:39.063Z,97494.63
2023-03-11T00:38:41.902Z,97494.50
2023-03-11T00:41:45.234Z,97489.19
2023-03-11T00:44:49.147Z,97488.09
2023-03-11T00:47:53.545Z,97497.03
2023-03-11T00:50:56.248Z,97484.69
2023-03-11T00:54:00.981Z,97507.94
2023-03-11T00:57:05.100Z,97490.69
2023-03-11T01:00:11.839Z,97490.16
2023-03-11T01:03:14.812Z,97487.84
2023-03-11T01:06:17.787Z,97498.28
2023-03-11T01:09:21.584Z,97494.53
2023-03-11T01:12:25.061Z,97480.75
2023-03-11T01:15:34.093Z,97474.22
2023-03-11T01:18:37.104Z,97467.41
2023-03-11T01:21:40.000Z,97470.69
2023-03-11T01:24:43.124Z,97465.31
2023-03-11T01:27:45.815Z,97457.16
2023-03-11T01:30:48.812Z,97479.47
2023-03-11T01:33:51.720Z,97471.66
2023-03-11T01:36:54.623Z,97474.31
2023-03-11T01:39:57.293Z,97474.09
2023-03-11T01:43:00.997Z,97472.22
2023-03-11T01:46:11.552Z,97481.84
2023-03-11T01:49:14.839Z,97473.91
2023-03-11T01:52:17.822Z,97470.59
2023-03-11T01:55:21.587Z,97487.94
2023-03-11T01:58:28.148Z,97500.41
2023-03-11T02:01:31.386Z,97496.97
2023-03-11T02:04:37.124Z,97497.84
2023-03-11T02:07:41.118Z,97494.03
2023-03-11T02:10:46.466Z,97502.88
2023-03-11T02:13:49.967Z,97511.56
2023-03-11T02:16:53.696Z,97501.66
2023-03-11T02:20:12.331Z,97520.62
2023-03-11T02:23:19.002Z,97523.94
2023-03-11T02:26:32.630Z,97510.91
2023-03-11T02:29:36.701Z,97519.38
2023-03-11T02:32:40.363Z,97548.19
2023-03-11T02:35:43.589Z,97530.63
2023-03-11T02:38:46.689Z,97545.81
2023-03-11T02:41:49.421Z,97541.34
2023-03-11T02:44:58.681Z,97534.56
2023-03-11T02:48:04.547Z,97534.34
2023-03-11T02:51:08.957Z,97528.69
2023-03-11T02:54:12.126Z,97538.31
2023-03-11T02:57:15.434Z,97545.84
2023-03-11T03:00:18.709Z,97577.66
2023-03-11T03:03:22.075Z,97592.37
2023-03-11T03:06:25.193Z,97600.41
2023-03-11T03:09:28.546Z,97602.50
2023-03-11T03:12:32.228Z,97615.66
2023-03-11T03:15:35.252Z,97612.62
2023-03-11T03:18:40.027Z,97628.88
2023-03-11T03:21:44.033Z,97621.97
2023-03-11T03:24:47.361Z,97624.59
2023-03-11T03:27:50.761Z,97618.25
2023-03-11T03:30:54.138Z,97644.09
2023-03-11T03:33:57.853Z,97644.22
2023-03-11T03:37:00.609Z,97633.78
2023-03-11T03:40:07.930Z,97630.87
2023-03-11T03:43:11.180Z,97624.59
2023-03-11T03:46:15.417Z,97611.28
2023-03-11T03:49:18.592Z,97621.31
2023-03-11T03:52:22.406Z,97605.81
2023-03-11T03:55:25.208Z,97601.78
2023-03-11T03:58:28.626Z,97622.87
2023-03-11T04:01:31.363Z,97644.31
2023-03-11T04:04:34.808Z,97648.78
2023-03-11T04:07:37.684Z,97624.81
2023-03-11T04:10:41.000Z,97633.00
2023-03-11T04:13:44.876Z,97618.41
2023-03-11T04:16:48.434Z,97600.53
2023-03-11T04:19:51.339Z,97617.88
2023-03-11T04:22:54.335Z,97620.81
2023-03-11T04:25:57.895Z,97626.22
2023-03-11T04:29:01.034Z,97615.44
2023-03-11T04:32:04.677Z,97646.25
2023-03-11T04:35:09.025Z,97654.69
2023-03-11T04:38:12.565Z,97654.06
2023-03-11T04:41:15.628Z,97630.47
2023-03-11T04:44:18.887Z,97663.97
2023-03-11T04:47:22.346Z,97647.78
2023-03-11T04:50:28.052Z,97665.56
2023-03-11T04:53:31.446Z,97667.69
2023-03-11T04:56:34.780Z,97660.66
2023-03-11T04:59:39.092Z,97669.59
2023-03-11T05:02:42.754Z,97661.50
2023-03-11T05:05:46.909Z,97661.81
2023-03-11T05:08:50.264Z,97653.47
2023-03-11T05:11:53.561Z,97645.09
2023-03-11T05:14:56.669Z,97635.94
2023-03-11T05:17:59.836Z,97638.69
2023-03-11T05:21:02.854Z,97632.75
2023-03-11T05:24:06.638Z,97624.66
2023-03-11T05:27:09.352Z,97638.22
2023-03-11T05:30:12.989Z,97652.56
2023-03-11T05:33:16.091Z,97642.53
2023-03-11T05:36:19.232Z,97656.66
2023-03-11T05:39:22.563Z,97673.47
2023-03-11T05:42:26.267Z,97670.19
2023-03-11T05:45:29.459Z,97694.28
2023-03-11T05:48:32.845Z,97692.13
2023-03-11T05:51:36.683Z,97692.94
2023-03-11T05:54:39.957Z,97693.50
2023-03-11T05:57:42.719Z,97691.63
2023-03-11T06:00:46.544Z,97710.56
2023-03-11T06:03:49.728Z,97705.72
2023-03-11T06:06:52.799Z,97700.31
2023-03-11T06:09:56.187Z,97718.47
2023-03-11T06:12:58.899Z,97695.47
2023-03-11T06:16:02.451Z,97725.50
2023-03-11T06:19:05.493Z,97704.94
2023-03-11T06:22:09.740Z,97709.84
2023-03-11T06:25:12.970Z,97717.13
2023-03-11T06:28:16.954Z,97706.03
2023-03-11T06:31:29.582Z,97694.13
2023-03-11T06:34:33.410Z,97701.16
2023-03-11T06:37:37.165Z,97675.47
2023-03-11T06:40:40.272Z,97679.50
2023-03-11T06:43:43.188Z,97671.66
2023-03-11T06:46:46.294Z,97676.22
2023-03-11T06:49:50.941Z,97662.44
2023-03-11T06:52:54.181Z,97661.84
2023-03-11T06:56:02.908Z,97656.44
2023-03-11T06:59:06.696Z,97699.44
2023-03-11T07:02:14.668Z,97704.59
2023-03-11T07:05:18.165Z,97719.75
2023-03-11T07:08:21.459Z,97717.59
2023-03-11T07:11:27.144Z,97715.97
2023-03-11T07:14:31.148Z,97729.00
2023-03-11T07:17:34.274Z,97717.66
2023-03-11T07:20:37.861Z,97708.16
2023-03-11T07:23:42.319Z,97716.84
2023-03-11T07:26:45.292Z,97703.59
2023-03-11T07:29:48.407Z,97712.22
2023-03-11T07:32:51.092Z,97706.56
2023-03-11T07:35:54.122Z,97701.44
2023-03-11T07:39:04.473Z,97698.69
2023-03-11T07:42:07.993Z,97699.75
2023-03-11T07:45:11.208Z,97707.91
2023-03-11T07:48:14.163Z,97717.94
2023-03-11T07:51:18.581Z,97718.22
2023-03-11T07:54:21.702Z,97744.66
2023-03-11T07:57:24.372Z,97737.72
2023-03-11T08:00:27.955Z,97755.22
2023-03-11T08:03:31.072Z,97754.97
2023-03-11T08:06:36.138Z,97785.59
2023-03-11T08:09:39.034Z,97762.22
2023-03-11T08:12:41.749Z,97799.09
2023-03-11T08:15:44.938Z,97783.78
2023-03-11T08:18:49.662Z,97821.19
2023-03-11T08:21:52.591Z,97799.34
2023-03-11T08:24:56.633Z,97816.22
2023-03-11T08:27:59.543Z,97799.72
2023-03-11T08:31:02.974Z,97803.25
2023-03-11T08:34:08.718Z,97815.19
2023-03-11T08:37:11.539Z,97818.41
2023-03-11T08:40:14.809Z,97802.94
2023-03-11T08:43:17.466Z,97838.19
2023-03-11T08:46:25.719Z,97841.25
2023-03-11T08:49:28.615Z,97848.19
2023-03-11T08:52:31.772Z,97867.47
2023-03-11T08:55:34.797Z,97884.50
2023-03-11T08:58:37.820Z,97894.50
2023-03-11T09:01:41.924Z,97909.22
2023-03-11T09:04:44.852Z,97900.88
2023-03-11T09:07:47.510Z,97902.09
2023-03-11T09:10:50.463Z,97913.53
2023-03-11T09:13:53.443Z,97902.03
2023-03-11T09:16:56.554Z,97912.81
2023-03-11T09:19:59.411Z,97896.81
2023-03-11T09:23:02.344Z,97915.53
2023-03-11T09:26:05.201Z,97897.16
2023-03-11T09:29:08.175Z,97913.00
2023-03-11T09:32:15.585Z,97885.72
2023-03-11T09:35:18.934Z,97898.94
2023-03-11T09:38:21.557Z,97915.41
2023-03-11T09:41:32.190Z,97905.37
2023-03-11T09:44:45.977Z,97904.13
2023-03-11T09:48:16.786Z,97904.47
2023-03-11T09:51:46.162Z,97936.72
2023-03-11T09:54:52.735Z,97940.56
2023-03-11T09:57:58.447Z,97944.25
2023-03-11T10:01:02.166Z,97948.88
2023-03-11T10:04:29.494Z,97965.44
2023-03-11T10:07:39.651Z,97973.69
2023-03-11T10:10:50.104Z,97974.97
2023-03-11T10:14:13.608Z,97986.25
2023-03-11T10:17:36.513Z,97991.16
2023-03-11T10:20:39.058Z,98025.16
2023-03-11T10:23:55.728Z,98018.87
2023-03-11T10:27:03.398Z,98020.72
2023-03-11T10:30:27.718Z,98034.53
2023-03-11T10:33:47.974Z,98066.81
2023-03-11T10:37:11.581Z,98058.56
2023-03-11T10:40:29.739Z,98081.06
2023-03-11T10:43:38.966Z,98088.44
2023-03-11T10:46:41.719Z,98079.78
2023-03-11T10:49:44.852Z,98076.25
2023-03-11T10:53:06.139Z,98080.13
2023-03-11T10:56:25.650Z,98088.06
2023-03-11T10:59:47.199Z,98078.56
2023-03-11T11:02:53.285Z,98068.16
2023-03-11T11:06:02.823Z,98066.19
2023-03-11T11:09:06.568Z,98060.56
2023-03-11T11:12:18.231Z,98035.91
2023-03-11T11:15:30.957Z,98040.72
2023-03-11T11:18:49.216Z,98049.94
2023-03-11T11:21:52.498Z,98039.28
2023-03-11T11:24:56.579Z,98027.50
2023-03-11T11:28:20.901Z,98045.59
2023-03-11T11:31:26.067Z,98036.22
2023-03-11T11:34:35.375Z,98053.62
2023-03-11T11:37:42.555Z,98055.41
2023-03-11T11:40:45.988Z,98077.41
2023-03-11T11:43:52.374Z,98085.22
2023-03-11T11:47:11.011Z,98082.59
2023-03-11T11:50:34.203Z,98083.91
2023-03-11T11:53:44.159Z,98096.69
2023-03-11T11:56:46.927Z,98118.19
2023-03-11T11:59:50.464Z,98136.13
2023-03-11T12:03:10.526Z,98137.34
2023-03-11T12:06:27.888Z,98139.28
2023-03-11T12:09:35.327Z,98143.06
2023-03-11T12:13:00.229Z,98156.13
2023-03-11T12:16:20.148Z,98113.19
2023-03-11T12:19:44.382Z,98106.44
2023-03-11T12:23:01.815Z,98114.38
2023-03-11T12:26:24.292Z,98122.56
2023-03-11T12:29:49.113Z,98115.06
2023-03-11T12:33:04.315Z,98101.38
2023-03-11T12:36:18.736Z,98112.25
2023-03-11T12:39:29.755Z,98091.72
2023-03-11T12:42:40.522Z,98121.25
2023-03-11T12:45:55.625Z,98113.88
2023-03-11T12:49:14.397Z,98127.22
2023-03-11T12:52:21.093Z,98132.09
2023-03-11T12:55:29.127Z,98138.28
2023-03-11T12:58:32.092Z,98166.88
2023-03-11T13:01:49.458Z,98173.72
2023-03-11T13:05:21.086Z,98166.16
2023-03-11T13:08:44.420Z,98158.75
2023-03-11T13:11:48.834Z,98205.75
2023-03-11T13:15:22.991Z,98216.63
2023-03-11T13:18:28.013Z,98210.66
2023-03-11T13:21:34.651Z,98235.31
2023-03-11T13:24:37.503Z,98241.63
2023-03-11T13:27:46.980Z,98241.91
2023-03-11T13:31:20.702Z,98232.97
2023-03-11T13:34:42.765Z,98250.31
2023-03-11T13:38:14.183Z,98230.25
2023-03-11T13:41:24.316Z,98245.72
2023-03-11T13:44:36.997Z,98233.75
2023-03-11T13:47:45.468Z,98261.72
2023-03-11T13:50:55.253Z,98241.37
2023-03-11T13:54:34.926Z,98256.31
2023-03-11T13:57:38.158Z,98251.12
2023-03-11T14:00:50.031Z,98265.50
2023-03-11T14:03:53.055Z,98262.78
2023-03-11T14:06:56.042Z,98295.63
2023-03-11T14:10:22.199Z,98312.38
2023-03-11T14:13:32.108Z,98307.69
2023-03-11T14:16:44.318Z,98322.91
2023-03-11T14:20:25.380Z,98332.97
2023-03-11T14:23:41.267Z,98320.69
2023-03-11T14:26:44.838Z,98307.94
2023-03-11T14:29:48.283Z,98329.31
2023-03-11T14:33:00.281Z,98331.75
2023-03-11T14:36:11.714Z,98326.25
2023-03-11T14:39:31.594Z,98326.75
2023-03-11T14:42:38.685Z,98329.25
2023-03-11T14:45:43.874Z,98342.59
2023-03-11T14:48:47.164Z,98352.41
2023-03-11T14:52:01.895Z,98359.88
2023-03-11T14:55:12.983Z,98375.31
2023-03-11T14:58:21.043Z,98360.16
2023-03-11T15:01:28.948Z,98374.72
2023-03-11T15:04:38.083Z,98366.22
2023-03-11T15:07:41.222Z,98355.66
2023-03-11T15:11:05.155Z,98359.47
2023-03-11T15:14:35.857Z,98364.38
2023-03-11T15:17:44.226Z,98368.94
2023-03-11T15:21:07.387Z,98374.44
2023-03-11T15:24:21.310Z,98367.72
2023-03-11T15:27:36.620Z,98373.12
2023-03-11T15:30:39.457Z,98362.22
2023-03-11T15:33:43.703Z,98358.91
2023-03-11T15:36:49.322Z,98352.53
2023-03-11T15:39:53.223Z,98379.88
2023-03-11T15:43:27.943Z,98361.31
2023-03-11T15:46:31.030Z,98377.00
2023-03-11T15:49:34.141Z,98381.56
2023-03-11T15:52:37.500Z,98379.84
2023-03-11T15:55:40.116Z,98367.09
2023-03-11T15:58:43.027Z,98368.13
2023-03-11T16:01:47.199Z,98367.50
2023-03-11T16:04:51.198Z,98383.09
2023-03-11T16:07:54.609Z,98389.75
2023-03-11T16:10:58.154Z,98392.69
2023-03-11T16:14:01.006Z,98386.09
2023-03-11T16:17:03.953Z,98417.97
2023-03-11T16:20:07.253Z,98409.16
2023-03-11T16:23:19.437Z,98448.63
2023-03-11T16:26:22.724Z,98443.63
2023-03-11T16:29:27.066Z,98454.69
2023-03-11T16:32:29.846Z,98472.16
2023-03-11T16:35:33.381Z,98453.16
2023-03-11T16:38:48.173Z,98471.66
2023-03-11T16:41:51.205Z,98463.13
2023-03-11T16:44:53.818Z,98468.34
2023-03-11T16:47:56.908Z,98481.44
2023-03-11T16:51:00.721Z,98483.87
2023-03-11T16:54:03.735Z,98484.22
2023-03-11T16:57:10.896Z,98495.81
2023-03-11T17:00:15.310Z,98500.41
2023-03-11T17:03:21.657Z,98514.97
2023-03-11T17:06:25.073Z,98517.69
2023-03-11T17:09:27.776Z,98534.81
2023-03-11T17:12:30.714Z,98543.91
2023-03-11T17:15:35.284Z,98539.53
2023-03-11T17:18:38.415Z,98526.09
2023-03-11T17:21:41.059Z,98544.72
2023-03-11T17:24:44.094Z,98552.56
2023-03-11T17:27:46.781Z,98549.53
2023-03-11T17:30:50.056Z,98556.84
2023-03-11T17:33:52.780Z,98545.78
2023-03-11T17:36:56.608Z,98568.94
2023-03-11T17:39:59.289Z,98573.75
2023-03-11T17:43:02.277Z,98602.28
2023-03-11T17:46:14.453Z,98597.81
2023-03-11T17:49:17.447Z,98604.50
2023-03-11T17:52:20.163Z,98604.84
2023-03-11T17:55:23.176Z,98621.28
2023-03-11T17:58:25.806Z,98607.69
2023-03-11T18:01:29.880Z,98616.13
2023-03-11T18:04:32.822Z,98629.81
2023-03-11T18:07:39.187Z,98636.19
2023-03-11T18:10:49.503Z,98634.78
2023-03-11T18:13:53.260Z,98609.91
2023-03-11T18:16:56.215Z,98643.59
2023-03-11T18:20:00.538Z,98646.75
2023-03-11T18:23:04.799Z,98649.34
2023-03-11T18:26:08.760Z,98655.31
2023-03-11T18:29:12.112Z,98652.34
2023-03-11T18:32:14.825Z,98657.06
2023-03-11T18:35:18.797Z,98685.06
2023-03-11T18:38:21.430Z,98676.75
2023-03-11T18:41:26.219Z,98709.47
2023-03-11T18:44:29.010Z,98731.03
2023-03-11T18:47:35.588Z,98736.66
2023-03-11T18:50:41.050Z,98745.41
2023-03-11T18:53:44.417Z,98739.53
2023-03-11T18:56:47.140Z,98749.25
2023-03-11T18:59:52.027Z,98752.22
2023-03-11T19:02:54.952Z,98762.09
2023-03-11T19:05:58.387Z,98778.88
2023-03-11T19:09:01.331Z,98794.34
2023-03-11T19:12:05.093Z,98810.75
2023-03-11T19:15:08.396Z,98793.09
2023-03-11T19:18:11.813Z,98797.37
2023-03-11T19:21:15.834Z,98813.91
2023-03-11T19:24:18.818Z,98822.59
2023-03-11T19:27:21.483Z,98825.88
2023-03-11T19:30:25.212Z,98834.69
2023-03-11T19:33:28.513Z,98829.47
2023-03-11T19:36:31.788Z,98828.78
2023-03-11T19:39:34.444Z,98839.03
2023-03-11T19:42:37.575Z,98835.19
2023-03-11T19:45:40.597Z,98842.16
2023-03-11T19:48:43.651Z,98836.00
2023-03-11T19:51:50.493Z,98844.19
2023-03-11T19:54:53.732Z,98853.00
2023-03-11T19:57:56.549Z,98861.16
2023-03-11T20:00:59.863Z,98874.69
2023-03-11T20:04:04.264Z,98874.81
2023-03-11T20:07:07.055Z,98893.22
2023-03-11T20:10:10.918Z,98891.62
2023-03-11T20:13:14.888Z,98892.91
2023-03-11T20:16:19.424Z,98904.75
2023-03-11T20:19:22.361Z,98901.56
2023-03-11T20:22:25.893Z,98896.03
2023-03-11T20:25:31.118Z,98893.25
2023-03-11T20:28:34.482Z,98872.81
2023-03-11T20:31:37.456Z,98882.34
2023-03-11T20:34:40.488Z,98898.28
2023-03-11T20:37:44.076Z,98898.72
2023-03-11T20:40:55.579Z,98906.22
2023-03-11T20:44:04.323Z,98904.00
2023-03-11T20:47:07.413Z,98921.78
2023-03-11T20:50:14.469Z,98919.72
2023-03-11T20:53:17.556Z,98924.13
2023-03-11T20:56:26.186Z,98931.56
2023-03-11T20:59:29.821Z,98934.69
2023-03-11T21:02:34.534Z,98917.94
2023-03-11T21:05:38.423Z,98927.44
2023-03-11T21:08:41.297Z,98924.94
2023-03-11T21:11:44.594Z,98939.19
2023-03-11T21:14:47.215Z,98938.56
2023-03-11T21:17:50.265Z,98944.75
2023-03-11T21:20:53.046Z,98951.72
2023-03-11T21:23:56.422Z,98946.56
2023-03-11T21:26:59.199Z,98952.09
2023-03-11T21:30:02.473Z,98949.81
2023-03-11T21:33:05.248Z,98940.38
2023-03-11T21:36:10.097Z,98951.56
2023-03-11T21:39:12.996Z,98953.69
2023-03-11T21:42:16.203Z,98965.25
2023-03-11T21:45:19.112Z,98962.59
2023-03-11T21:48:22.293Z,98947.13
2023-03-11T21:51:25.803Z,98961.53
2023-03-11T21:54:29.047Z,98970.81
2023-03-11T21:57:31.940Z,98971.28
2023-03-11T22:00:35.295Z,98987.59
2023-03-11T22:03:38.712Z,98982.88
2023-03-11T22:06:41.501Z,99000.84
2023-03-11T22:09:44.887Z,98995.69
2023-03-11T22:12:47.786Z,99014.47
2023-03-11T22:15:51.140Z,99006.56
2023-03-11T22:18:54.317Z,99021.88
2023-03-11T22:21:57.385Z,99009.75
2023-03-11T22:25:00.108Z,99025.22
2023-03-11T22:28:03.713Z,99034.34
2023-03-11T22:31:13.689Z,99038.50
2023-03-11T22:34:16.737Z,99031.13
2023-03-11T22:37:20.509Z,99046.41
2023-03-11T22:40:23.574Z,99058.81
2023-03-11T22:43:27.102Z,99070.44
2023-03-11T22:46:30.357Z,99066.69
2023-03-11T22:49:33.057Z,99069.19
2023-03-11T22:52:36.105Z,99073.31
2023-03-11T22:55:40.642Z,99065.47
2023-03-11T22:58:44.194Z,99082.00
2023-03-11T23:01:46.992Z,99086.94
2023-03-11T23:04:50.066Z,99092.28
2023-03-11T23:07:52.872Z,99088.97
2023-03-11T23:10:55.840Z,99085.63
2023-03-11T23:13:59.792Z,99102.72
2023-03-11T23:17:02.744Z,99102.88
2023-03-11T23:20:10.394Z,99104.69
2023-03-11T23:23:13.710Z,99099.25
2023-03-11T23:26:17.461Z,99118.56
2023-03-11T23:29:20.517Z,99118.19
2023-03-11T23:32:23.628Z,99125.09
2023-03-11T23:35:26.664Z,99131.69
2023-03-11T23:38:29.838Z,99118.84
2023-03-11T23:41:32.936Z,99120.25
2023-03-11T23:44:35.983Z,99136.31
2023-03-11T23:47:39.054Z,99133.59
2023-03-11T23:50:50.218Z,99129.75
2023-03-11T23:53:53.287Z,99159.62
2023-03-11T23:56:55.959Z,99152.38
2023-03-11T23:59:59.063Z,99154.22
